Time;durP1;ratioP1;P1;durP2;ratioP2;P2;SDS_P1;SDS_P2;PMS_P1;PMS_P2;Temp;Humidity;BMP_temperature;BMP_pressure;BME280_temperature;BME280_humidity;BME280_pressure;Samples;Min_cycle;Max_cycle;Signal;HPM_P1;HPM_P2
2022/08/23 00:00:42;;;;;;;4.50;3.13;;;;;;;;;;5024399;28;20446;-52
2022/08/23 00:03:08;;;;;;;3.50;3.20;;;;;;;;;;5002866;28;22840;-53
2022/08/23 00:05:34;;;;;;;4.93;3.27;;;;;;;;;;5027836;28;21323;-52
2022/08/23 00:08:00;;;;;;;4.87;3.70;;;;;;;;;;5018620;28;20211;-52
2022/08/23 00:10:25;;;;;;;4.50;3.57;;;;;;;;;;5026508;28;20996;-53
2022/08/23 00:12:51;;;;;;;5.20;3.73;;;;;;;;;;5022814;28;20953;-52
2022/08/23 00:15:18;;;;;;;4.07;3.40;;;;;;;;;;5026156;28;20834;-51
2022/08/23 00:17:44;;;;;;;3.93;3.50;;;;;;;;;;4993144;28;20207;-53
2022/08/23 00:20:11;;;;;;;4.80;3.30;;;;;;;;;;5017312;28;20439;-52
2022/08/23 00:22:37;;;;;;;3.27;2.97;;;;;;;;;;5004994;28;20423;-52
2022/08/23 00:25:03;;;;;;;3.67;3.30;;;;;;;;;;5023096;28;20972;-53
2022/08/23 00:27:29;;;;;;;3.80;3.13;;;;;;;;;;5029825;28;20478;-52
2022/08/23 00:29:55;;;;;;;3.70;3.30;;;;;;;;;;5022116;28;20812;-52
2022/08/23 00:32:26;;;;;;;4.20;3.33;;;;;;;;;;5026723;28;20207;-52
2022/08/23 00:34:52;;;;;;;3.30;3.00;;;;;;;;;;5025972;28;20466;-53
2022/08/23 00:37:19;;;;;;;3.57;3.27;;;;;;;;;;5025566;28;20477;-52
2022/08/23 00:39:45;;;;;;;4.70;3.80;;;;;;;;;;5014776;28;20508;-52
2022/08/23 00:47:45;;;;;;;4.40;3.10;;;;;;;;;;5016842;28;20479;-53
2022/08/23 00:50:25;;;;;;;4.80;3.60;;;;;;;;;;5007251;28;20435;-53
2022/08/23 00:52:57;;;;;;;5.30;3.77;;;;;;;;;;4967665;28;21221;-53
2022/08/23 00:55:23;;;;;;;4.23;3.83;;;;;;;;;;5026807;28;20463;-53
2022/08/23 00:57:50;;;;;;;6.30;3.70;;;;;;;;;;5004947;28;21145;-52
2022/08/23 01:00:16;;;;;;;6.17;4.10;;;;;;;;;;5008927;28;20431;-52
2022/08/23 01:02:42;;;;;;;6.67;3.77;;;;;;;;;;5019862;28;20435;-53
2022/08/23 01:05:08;;;;;;;3.60;3.30;;;;;;;;;;5020030;28;20430;-53
2022/08/23 01:07:37;;;;;;;4.97;3.47;;;;;;;;;;5017215;28;20987;-52
2022/08/23 01:10:08;;;;;;;3.87;3.40;;;;;;;;;;5006071;28;20434;-53
2022/08/23 01:12:41;;;;;;;4.70;2.90;;;;;;;;;;5005249;28;22103;-53
2022/08/23 01:15:11;;;;;;;3.83;3.40;;;;;;;;;;5021221;28;20435;-53
2022/08/23 01:17:41;;;;;;;7.23;3.90;;;;;;;;;;4999280;28;20961;-53
2022/08/23 01:20:12;;;;;;;4.10;3.70;;;;;;;;;;5019561;28;20434;-52
2022/08/23 01:22:52;;;;;;;3.40;3.00;;;;;;;;;;5005886;28;20446;-53
2022/08/23 01:25:20;;;;;;;3.53;3.23;;;;;;;;;;5012053;28;20508;-52
2022/08/23 01:27:49;;;;;;;3.30;3.00;;;;;;;;;;4976162;28;20478;-53
2022/08/23 01:30:18;;;;;;;4.50;3.17;;;;;;;;;;5007846;28;20466;-52
2022/08/23 01:32:45;;;;;;;4.10;3.47;;;;;;;;;;5014005;28;21094;-53
2022/08/23 01:35:11;;;;;;;5.47;4.03;;;;;;;;;;5021158;28;20412;-53
2022/08/23 01:37:37;;;;;;;4.00;3.00;;;;;;;;;;5025522;28;20463;-51
2022/08/23 01:40:03;;;;;;;3.70;2.93;;;;;;;;;;5011219;28;20482;-52
2022/08/23 01:42:29;;;;;;;3.30;2.73;;;;;;;;;;5027215;28;20509;-53
2022/08/23 01:44:55;;;;;;;4.60;2.80;;;;;;;;;;5011426;28;20478;-52
2022/08/23 01:47:21;;;;;;;5.83;3.00;;;;;;;;;;5022246;28;20489;-52
2022/08/23 01:49:47;;;;;;;5.97;3.43;;;;;;;;;;5009897;28;20443;-52
2022/08/23 01:52:14;;;;;;;4.53;3.30;;;;;;;;;;5029841;28;20207;-52
2022/08/23 01:54:40;;;;;;;3.70;3.20;;;;;;;;;;5023485;28;20922;-52
2022/08/23 01:57:06;;;;;;;4.10;3.77;;;;;;;;;;5029784;28;20431;-53
2022/08/23 01:59:32;;;;;;;3.97;3.20;;;;;;;;;;4966270;28;20204;-51
2022/08/23 02:01:58;;;;;;;4.30;3.53;;;;;;;;;;5015403;28;20420;-52
2022/08/23 02:04:24;;;;;;;4.40;3.80;;;;;;;;;;5024830;28;20445;-53
2022/08/23 02:06:50;;;;;;;3.83;3.10;;;;;;;;;;5023580;28;20208;-53
2022/08/23 02:09:16;;;;;;;4.03;3.20;;;;;;;;;;5016734;28;20435;-52
2022/08/23 02:11:42;;;;;;;3.20;2.90;;;;;;;;;;5029249;28;20293;-52
2022/08/23 02:14:12;;;;;;;6.20;3.10;;;;;;;;;;5009580;28;20442;-53
2022/08/23 02:16:39;;;;;;;3.30;3.00;;;;;;;;;;5026825;28;20443;-52
2022/08/23 02:19:07;;;;;;;3.07;2.77;;;;;;;;;;5001413;28;20530;-52
2022/08/23 02:21:33;;;;;;;5.60;3.50;;;;;;;;;;5023701;28;20451;-52
2022/08/23 02:23:59;;;;;;;4.07;3.63;;;;;;;;;;5024150;28;20431;-52
2022/08/23 02:26:25;;;;;;;3.63;3.03;;;;;;;;;;5027307;28;20438;-52
2022/08/23 02:28:52;;;;;;;3.47;3.17;;;;;;;;;;5021242;28;20507;-52
2022/08/23 02:31:18;;;;;;;4.30;3.30;;;;;;;;;;5027258;28;20442;-51
2022/08/23 02:33:44;;;;;;;4.57;3.43;;;;;;;;;;4982099;28;20440;-52
2022/08/23 02:36:11;;;;;;;5.03;3.20;;;;;;;;;;5027408;28;20925;-52
2022/08/23 02:38:37;;;;;;;4.17;3.37;;;;;;;;;;5006568;28;20601;-52
2022/08/23 02:41:03;;;;;;;4.90;3.00;;;;;;;;;;5025394;28;20582;-52
2022/08/23 02:43:29;;;;;;;3.43;2.93;;;;;;;;;;5024099;28;20185;-53
2022/08/23 02:45:55;;;;;;;5.00;3.00;;;;;;;;;;5025029;28;20454;-53
2022/08/23 02:48:21;;;;;;;4.20;3.20;;;;;;;;;;5022507;28;20462;-52
2022/08/23 02:50:48;;;;;;;3.67;2.73;;;;;;;;;;5026985;28;20672;-51
2022/08/23 02:53:14;;;;;;;3.77;3.30;;;;;;;;;;5006272;28;20592;-52
2022/08/23 02:55:40;;;;;;;9.57;3.57;;;;;;;;;;5022032;28;20956;-53
2022/08/23 02:58:06;;;;;;;2.90;2.63;;;;;;;;;;5000487;28;20470;-52
2022/08/23 03:00:32;;;;;;;4.57;3.37;;;;;;;;;;5026354;28;20458;-52
2022/08/23 03:02:58;;;;;;;4.70;3.77;;;;;;;;;;5007951;28;20423;-52
2022/08/23 03:05:25;;;;;;;3.70;3.07;;;;;;;;;;5027743;28;20195;-52
2022/08/23 03:07:51;;;;;;;3.30;2.90;;;;;;;;;;4988980;28;21770;-53
2022/08/23 03:10:17;;;;;;;4.23;3.43;;;;;;;;;;5018994;28;20825;-51
2022/08/23 03:12:42;;;;;;;3.07;2.57;;;;;;;;;;5026851;28;20707;-52
2022/08/23 03:15:09;;;;;;;3.80;3.40;;;;;;;;;;5027400;28;20431;-52
2022/08/23 03:17:35;;;;;;;4.40;3.40;;;;;;;;;;5008152;28;20911;-53
2022/08/23 03:20:01;;;;;;;3.53;3.07;;;;;;;;;;5020686;28;20439;-52
2022/08/23 03:22:26;;;;;;;4.90;3.30;;;;;;;;;;5025766;28;20467;-52
2022/08/23 03:24:52;;;;;;;4.70;3.30;;;;;;;;;;5017168;28;20435;-52
2022/08/23 03:27:18;;;;;;;4.03;3.30;;;;;;;;;;5020966;28;20224;-53
2022/08/23 03:29:44;;;;;;;4.50;3.07;;;;;;;;;;5011057;28;20211;-52
2022/08/23 03:32:10;;;;;;;4.80;3.67;;;;;;;;;;5018018;28;20447;-52
2022/08/23 03:34:36;;;;;;;3.23;2.80;;;;;;;;;;5022868;28;20181;-53
2022/08/23 03:37:02;;;;;;;3.40;2.50;;;;;;;;;;5025883;28;20195;-52
2022/08/23 03:39:28;;;;;;;3.70;3.30;;;;;;;;;;4979677;28;20439;-52
2022/08/23 03:41:54;;;;;;;4.37;3.50;;;;;;;;;;5021166;28;20450;-53
2022/08/23 03:44:20;;;;;;;3.33;2.93;;;;;;;;;;5022636;28;20437;-52
2022/08/23 03:46:46;;;;;;;4.33;3.27;;;;;;;;;;5027482;28;20451;-53
2022/08/23 03:49:12;;;;;;;3.17;2.87;;;;;;;;;;5010660;28;20550;-52
2022/08/23 03:51:38;;;;;;;3.73;2.93;;;;;;;;;;5026732;28;20444;-53
2022/08/23 03:54:04;;;;;;;3.30;3.10;;;;;;;;;;5024831;28;20189;-53
2022/08/23 03:56:31;;;;;;;3.23;2.93;;;;;;;;;;5020411;28;20271;-53
2022/08/23 03:58:57;;;;;;;3.50;3.20;;;;;;;;;;5003057;28;20435;-52
2022/08/23 04:01:23;;;;;;;4.93;2.90;;;;;;;;;;5026100;28;20427;-53
2022/08/23 04:03:49;;;;;;;4.00;3.37;;;;;;;;;;5005043;28;20453;-52
2022/08/23 04:06:15;;;;;;;4.20;2.93;;;;;;;;;;5023997;28;20173;-53
2022/08/23 04:08:41;;;;;;;4.20;3.00;;;;;;;;;;5004009;28;20564;-52
2022/08/23 04:11:08;;;;;;;4.03;3.27;;;;;;;;;;5023913;28;20427;-52
2022/08/23 04:13:35;;;;;;;3.60;3.30;;;;;;;;;;4980224;28;20460;-53
2022/08/23 04:16:02;;;;;;;3.77;3.20;;;;;;;;;;5024107;28;20439;-54
2022/08/23 04:18:30;;;;;;;5.17;3.70;;;;;;;;;;5020984;28;22237;-53
2022/08/23 04:20:57;;;;;;;3.87;3.47;;;;;;;;;;5024236;28;20435;-52
2022/08/23 04:23:24;;;;;;;3.57;3.13;;;;;;;;;;5017523;28;20449;-53
2022/08/23 04:25:50;;;;;;;4.43;3.20;;;;;;;;;;5025498;28;20573;-52
2022/08/23 04:28:16;;;;;;;6.93;3.20;;;;;;;;;;5003886;28;20850;-55
2022/08/23 04:30:43;;;;;;;3.70;3.07;;;;;;;;;;5022447;28;20929;-54
2022/08/23 04:33:09;;;;;;;4.17;3.87;;;;;;;;;;5021074;28;21112;-54
2022/08/23 04:35:35;;;;;;;3.37;3.07;;;;;;;;;;5018884;28;20518;-54
2022/08/23 04:38:01;;;;;;;5.00;3.90;;;;;;;;;;5001428;28;20271;-54
2022/08/23 04:43:11;;;;;;;3.33;3.03;;;;;;;;;;4980225;28;20200;-55
2022/08/23 04:45:38;;;;;;;4.27;3.00;;;;;;;;;;5022502;28;20434;-53
2022/08/23 04:48:04;;;;;;;5.40;3.73;;;;;;;;;;5021571;28;20470;-54
2022/08/23 04:50:30;;;;;;;4.10;3.13;;;;;;;;;;5025140;28;20446;-54
2022/08/23 04:52:56;;;;;;;4.10;3.70;;;;;;;;;;5019820;28;20443;-54
2022/08/23 04:55:22;;;;;;;4.03;2.90;;;;;;;;;;5027645;28;20434;-54
2022/08/23 04:57:48;;;;;;;3.70;3.40;;;;;;;;;;5007204;28;21265;-54
2022/08/23 05:00:15;;;;;;;4.63;3.60;;;;;;;;;;5023853;28;20184;-54
2022/08/23 05:02:41;;;;;;;4.53;3.53;;;;;;;;;;5022516;28;20466;-55
2022/08/23 05:05:07;;;;;;;5.00;3.20;;;;;;;;;;5025516;28;20434;-54
2022/08/23 05:07:33;;;;;;;3.57;3.00;;;;;;;;;;4999169;28;20463;-54
2022/08/23 05:09:59;;;;;;;3.50;3.20;;;;;;;;;;5024291;28;20516;-54
2022/08/23 05:12:25;;;;;;;4.43;3.40;;;;;;;;;;5005245;28;21036;-54
2022/08/23 05:14:51;;;;;;;4.70;3.57;;;;;;;;;;5001173;28;20725;-54
2022/08/23 05:17:17;;;;;;;5.40;3.13;;;;;;;;;;5010977;28;20858;-55
2022/08/23 05:19:43;;;;;;;3.87;3.57;;;;;;;;;;5009819;28;20216;-55
2022/08/23 05:22:09;;;;;;;4.90;3.60;;;;;;;;;;5027517;28;20465;-54
2022/08/23 05:24:35;;;;;;;4.90;3.13;;;;;;;;;;5027128;28;20208;-54
2022/08/23 05:27:01;;;;;;;3.87;3.40;;;;;;;;;;5031935;28;20235;-54
2022/08/23 05:29:27;;;;;;;4.27;3.30;;;;;;;;;;4998731;28;20438;-53
2022/08/23 05:31:53;;;;;;;6.93;3.30;;;;;;;;;;5023149;28;20447;-54
2022/08/23 05:34:19;;;;;;;4.97;3.57;;;;;;;;;;5015551;28;20503;-54
2022/08/23 05:36:45;;;;;;;5.07;2.80;;;;;;;;;;5030068;28;20506;-53
2022/08/23 05:39:11;;;;;;;6.07;3.57;;;;;;;;;;5010750;28;20427;-54
2022/08/23 05:41:39;;;;;;;6.57;3.73;;;;;;;;;;5029244;28;20459;-54
2022/08/23 05:44:05;;;;;;;4.80;3.37;;;;;;;;;;5019538;28;20440;-54
2022/08/23 05:46:31;;;;;;;7.33;3.40;;;;;;;;;;5028105;28;20534;-54
2022/08/23 05:48:58;;;;;;;3.40;3.00;;;;;;;;;;4984998;28;20482;-54
2022/08/23 05:51:25;;;;;;;6.20;3.63;;;;;;;;;;5020529;28;20477;-53
2022/08/23 05:53:51;;;;;;;7.10;4.60;;;;;;;;;;5025915;28;20625;-53
2022/08/23 05:56:18;;;;;;;3.70;3.30;;;;;;;;;;5028963;28;20435;-53
2022/08/23 05:58:45;;;;;;;11.00;3.40;;;;;;;;;;4988307;28;20447;-55
2022/08/23 06:01:11;;;;;;;5.47;3.43;;;;;;;;;;5027288;28;20431;-54
2022/08/23 06:03:37;;;;;;;7.37;3.40;;;;;;;;;;4998341;28;20508;-55
2022/08/23 06:06:03;;;;;;;6.47;3.50;;;;;;;;;;5029964;28;20427;-55
2022/08/23 06:08:29;;;;;;;3.87;3.50;;;;;;;;;;4984845;28;20686;-55
2022/08/23 06:10:59;;;;;;;6.10;4.10;;;;;;;;;;5013012;28;20951;-54
2022/08/23 06:13:25;;;;;;;5.20;3.80;;;;;;;;;;5020790;28;20515;-54
2022/08/23 06:15:51;;;;;;;6.77;3.80;;;;;;;;;;5025281;28;20435;-55
2022/08/23 06:18:17;;;;;;;4.40;3.70;;;;;;;;;;5020365;28;20318;-54
2022/08/23 06:20:43;;;;;;;8.70;4.53;;;;;;;;;;5025547;28;20654;-53
2022/08/23 06:23:09;;;;;;;7.63;3.80;;;;;;;;;;4982167;28;20252;-53
2022/08/23 06:25:38;;;;;;;4.63;3.50;;;;;;;;;;5024943;28;20244;-53
2022/08/23 06:28:04;;;;;;;5.50;4.00;;;;;;;;;;5001193;28;20482;-54
2022/08/23 06:30:30;;;;;;;5.10;4.03;;;;;;;;;;5023831;28;20431;-53
2022/08/23 06:32:56;;;;;;;5.77;3.47;;;;;;;;;;5014530;28;20186;-52
2022/08/23 06:35:22;;;;;;;4.57;3.80;;;;;;;;;;5027589;28;20449;-54
2022/08/23 06:37:48;;;;;;;4.20;3.50;;;;;;;;;;5000185;28;20362;-54
2022/08/23 06:40:14;;;;;;;4.60;3.57;;;;;;;;;;5021396;28;20439;-54
2022/08/23 06:42:40;;;;;;;3.87;2.97;;;;;;;;;;5022549;28;21214;-55
2022/08/23 06:45:06;;;;;;;8.70;3.77;;;;;;;;;;5026499;28;22099;-54
2022/08/23 06:47:32;;;;;;;5.93;3.37;;;;;;;;;;5000802;28;20501;-54
2022/08/23 06:49:58;;;;;;;3.90;3.30;;;;;;;;;;5019993;28;20977;-53
2022/08/23 06:52:24;;;;;;;8.63;3.37;;;;;;;;;;5025642;28;20934;-54
2022/08/23 06:54:51;;;;;;;4.53;3.80;;;;;;;;;;5008148;28;20256;-53
2022/08/23 06:57:17;;;;;;;4.27;3.40;;;;;;;;;;5017597;28;20419;-54
2022/08/23 06:59:43;;;;;;;5.90;3.53;;;;;;;;;;4988703;28;20450;-54
2022/08/23 07:02:13;;;;;;;4.53;3.63;;;;;;;;;;5027185;28;20947;-55
2022/08/23 07:04:39;;;;;;;6.67;3.83;;;;;;;;;;5013873;28;20287;-55
2022/08/23 07:07:05;;;;;;;8.83;3.77;;;;;;;;;;5028928;28;21020;-54
2022/08/23 07:09:31;;;;;;;3.83;3.43;;;;;;;;;;5005495;28;20467;-53
2022/08/23 07:11:57;;;;;;;4.80;4.43;;;;;;;;;;5024493;28;20467;-52
2022/08/23 07:14:23;;;;;;;3.80;3.40;;;;;;;;;;4994599;28;20443;-53
2022/08/23 07:16:50;;;;;;;6.50;4.20;;;;;;;;;;5024262;28;20817;-52
2022/08/23 07:19:17;;;;;;;8.47;4.50;;;;;;;;;;5018262;28;20430;-53
2022/08/23 07:21:43;;;;;;;6.23;4.13;;;;;;;;;;5010701;28;20446;-53
2022/08/23 07:24:09;;;;;;;5.23;4.40;;;;;;;;;;5018242;28;20440;-53
2022/08/23 07:26:35;;;;;;;5.47;4.10;;;;;;;;;;5030003;28;20526;-53
2022/08/23 07:29:05;;;;;;;5.83;4.10;;;;;;;;;;5000966;28;20932;-53
2022/08/23 07:31:31;;;;;;;5.10;4.60;;;;;;;;;;5028627;28;21005;-54
2022/08/23 07:33:57;;;;;;;6.70;4.30;;;;;;;;;;4985126;28;20509;-54
2022/08/23 07:36:25;;;;;;;5.13;3.87;;;;;;;;;;5007874;28;21268;-53
2022/08/23 07:38:51;;;;;;;6.00;4.40;;;;;;;;;;5000890;28;20452;-54
2022/08/23 07:41:16;;;;;;;5.40;4.40;;;;;;;;;;5023783;28;20529;-59
2022/08/23 07:43:43;;;;;;;5.30;4.80;;;;;;;;;;4999750;28;20458;-54
2022/08/23 07:46:08;;;;;;;8.63;4.57;;;;;;;;;;5026048;28;20215;-54
2022/08/23 07:48:35;;;;;;;5.90;4.63;;;;;;;;;;5005238;28;21344;-53
2022/08/23 07:51:01;;;;;;;4.13;3.63;;;;;;;;;;5010828;28;20172;-52
2022/08/23 07:53:27;;;;;;;5.50;3.97;;;;;;;;;;5023199;28;21036;-55
2022/08/23 07:55:53;;;;;;;6.33;4.30;;;;;;;;;;5026913;28;20423;-56
2022/08/23 07:58:20;;;;;;;6.00;4.20;;;;;;;;;;5023580;28;20446;-54
2022/08/23 08:00:46;;;;;;;4.67;3.90;;;;;;;;;;5022232;28;20953;-55
2022/08/23 08:03:12;;;;;;;6.20;4.67;;;;;;;;;;5020969;28;20419;-54
2022/08/23 08:05:38;;;;;;;4.87;4.30;;;;;;;;;;5019130;28;20459;-54
2022/08/23 08:08:04;;;;;;;5.00;4.20;;;;;;;;;;4974256;28;20471;-54
2022/08/23 08:10:30;;;;;;;11.73;4.30;;;;;;;;;;5021022;28;20439;-54
2022/08/23 08:12:56;;;;;;;8.03;4.00;;;;;;;;;;5016955;28;20427;-54
2022/08/23 08:15:22;;;;;;;5.80;3.80;;;;;;;;;;5018702;28;20430;-53
2022/08/23 08:17:48;;;;;;;8.60;4.00;;;;;;;;;;4997869;28;20196;-54
2022/08/23 08:20:14;;;;;;;4.33;4.03;;;;;;;;;;5016177;28;20442;-54
2022/08/23 08:22:41;;;;;;;4.80;3.83;;;;;;;;;;5024585;28;20434;-54
2022/08/23 08:25:07;;;;;;;7.27;3.97;;;;;;;;;;5023038;28;20234;-53
2022/08/23 08:27:33;;;;;;;6.77;4.20;;;;;;;;;;5008946;28;20490;-55
2022/08/23 08:29:59;;;;;;;3.87;3.47;;;;;;;;;;5017728;28;20853;-54
2022/08/23 08:32:25;;;;;;;14.33;7.97;;;;;;;;;;5008351;28;20436;-54
2022/08/23 08:34:51;;;;;;;4.67;3.93;;;;;;;;;;5025548;28;20419;-54
2022/08/23 08:37:17;;;;;;;9.70;3.73;;;;;;;;;;5025826;28;20981;-55
2022/08/23 08:39:46;;;;;;;4.23;3.53;;;;;;;;;;5023911;28;20187;-54
2022/08/23 08:42:12;;;;;;;4.33;3.40;;;;;;;;;;5014038;28;20678;-54
2022/08/23 08:44:46;;;;;;;6.87;4.17;;;;;;;;;;4983440;28;20439;-54
2022/08/23 08:47:14;;;;;;;3.50;3.20;;;;;;;;;;5025023;28;20488;-55
2022/08/23 08:49:42;;;;;;;6.00;4.07;;;;;;;;;;4991266;28;20633;-55
2022/08/23 08:52:08;;;;;;;5.77;3.50;;;;;;;;;;5006426;28;20436;-54
2022/08/23 08:54:34;;;;;;;4.30;3.40;;;;;;;;;;5015547;28;20473;-54
2022/08/23 08:57:00;;;;;;;4.50;3.30;;;;;;;;;;5021190;28;20434;-54
2022/08/23 08:59:32;;;;;;;5.23;3.37;;;;;;;;;;5012102;28;20213;-54
2022/08/23 09:01:58;;;;;;;5.37;3.30;;;;;;;;;;5011659;28;20832;-54
2022/08/23 09:04:24;;;;;;;4.47;3.43;;;;;;;;;;5022959;28;20868;-54
2022/08/23 09:06:57;;;;;;;4.67;3.37;;;;;;;;;;5032633;28;20435;-54
2022/08/23 09:09:34;;;;;;;4.30;3.27;;;;;;;;;;5011542;28;20458;-54
2022/08/23 09:12:23;;;;;;;4.33;2.97;;;;;;;;;;5029409;28;20434;-54
2022/08/23 09:14:49;;;;;;;4.13;3.43;;;;;;;;;;4985723;28;20446;-54
2022/08/23 09:17:25;;;;;;;6.00;3.30;;;;;;;;;;5025011;28;20500;-54
2022/08/23 09:19:51;;;;;;;4.20;3.20;;;;;;;;;;5002744;28;20263;-54
2022/08/23 09:22:19;;;;;;;6.13;3.60;;;;;;;;;;5008080;28;20525;-54
2022/08/23 09:24:45;;;;;;;4.03;3.37;;;;;;;;;;4991045;28;21044;-54
2022/08/23 09:27:11;;;;;;;3.63;2.93;;;;;;;;;;5026779;28;20564;-53
2022/08/23 09:29:38;;;;;;;6.67;3.80;;;;;;;;;;5015466;28;20185;-54
2022/08/23 09:32:05;;;;;;;5.13;3.40;;;;;;;;;;5023995;28;20184;-53
2022/08/23 09:34:35;;;;;;;5.87;2.90;;;;;;;;;;5025941;28;20426;-53
2022/08/23 09:37:13;;;;;;;3.73;3.23;;;;;;;;;;5027512;28;20434;-54
2022/08/23 09:39:43;;;;;;;5.30;3.03;;;;;;;;;;5014167;28;20504;-54
2022/08/23 09:42:13;;;;;;;3.60;3.30;;;;;;;;;;5024749;28;20442;-54
2022/08/23 09:44:42;;;;;;;4.10;3.20;;;;;;;;;;4976142;28;20446;-54
2022/08/23 09:47:10;;;;;;;4.17;3.77;;;;;;;;;;5029605;28;21210;-54
2022/08/23 09:49:36;;;;;;;6.47;3.27;;;;;;;;;;5021983;28;20454;-53
2022/08/23 09:52:11;;;;;;;6.10;3.47;;;;;;;;;;5025611;28;20439;-54
2022/08/23 09:54:37;;;;;;;3.93;3.50;;;;;;;;;;5007049;28;20424;-54
2022/08/23 09:57:04;;;;;;;3.97;3.17;;;;;;;;;;5000586;28;20439;-54
2022/08/23 09:59:30;;;;;;;4.90;3.47;;;;;;;;;;4961229;28;20439;-54
2022/08/23 10:01:57;;;;;;;4.17;2.93;;;;;;;;;;5021297;28;20446;-54
2022/08/23 10:04:58;;;;;;;5.90;3.20;;;;;;;;;;5024385;28;20180;-54
2022/08/23 10:07:44;;;;;;;3.30;2.90;;;;;;;;;;4967006;28;20476;-54
2022/08/23 10:10:13;;;;;;;5.00;3.13;;;;;;;;;;5018686;28;20554;-54
2022/08/23 10:12:39;;;;;;;3.43;2.90;;;;;;;;;;5026016;28;20969;-54
2022/08/23 10:15:05;;;;;;;4.70;2.87;;;;;;;;;;4982137;28;20436;-55
2022/08/23 10:17:40;;;;;;;3.30;2.83;;;;;;;;;;5021779;28;20517;-55
2022/08/23 10:20:06;;;;;;;3.57;2.73;;;;;;;;;;4999845;28;20449;-54
2022/08/23 10:22:39;;;;;;;5.33;2.83;;;;;;;;;;5020243;28;20432;-54
2022/08/23 10:25:11;;;;;;;3.87;3.17;;;;;;;;;;4998903;28;20444;-54
2022/08/23 10:30:41;;;;;;;3.13;2.50;;;;;;;;;;5002007;28;20819;-54
2022/08/23 10:33:19;;;;;;;7.90;3.20;;;;;;;;;;5002095;28;20484;-54
2022/08/23 10:35:44;;;;;;;3.90;2.80;;;;;;;;;;5023729;28;20454;-54
2022/08/23 10:38:13;;;;;;;3.57;2.73;;;;;;;;;;5029653;28;20431;-53
2022/08/23 10:40:55;;;;;;;5.63;3.00;;;;;;;;;;4975661;28;20687;-54
2022/08/23 10:43:27;;;;;;;4.63;2.70;;;;;;;;;;5022336;28;20458;-53
2022/08/23 10:45:53;;;;;;;2.90;2.60;;;;;;;;;;5019808;28;20519;-53
2022/08/23 10:48:19;;;;;;;5.17;2.93;;;;;;;;;;5010451;28;20466;-53
2022/08/23 10:51:05;;;;;;;3.23;2.70;;;;;;;;;;5004258;28;21312;-53
2022/08/23 10:53:46;;;;;;;3.00;2.63;;;;;;;;;;5008296;28;20430;-55
2022/08/23 10:56:17;;;;;;;3.80;2.80;;;;;;;;;;5008378;28;20916;-53
2022/08/23 10:58:43;;;;;;;3.13;2.50;;;;;;;;;;5014937;28;20446;-55
2022/08/23 11:01:09;;;;;;;3.60;2.50;;;;;;;;;;5014435;28;20630;-55
2022/08/23 11:03:40;;;;;;;3.40;3.00;;;;;;;;;;5008921;28;20443;-54
2022/08/23 11:06:25;;;;;;;7.13;2.93;;;;;;;;;;5010817;28;20442;-54
2022/08/23 11:09:18;;;;;;;2.80;2.50;;;;;;;;;;5018896;28;20458;-54
2022/08/23 11:12:02;;;;;;;3.10;2.80;;;;;;;;;;4996951;28;20633;-55
2022/08/23 11:14:31;;;;;;;3.90;2.77;;;;;;;;;;4964203;28;20463;-54
2022/08/23 11:16:58;;;;;;;3.63;2.60;;;;;;;;;;5026149;28;20435;-54
2022/08/23 11:19:43;;;;;;;5.30;2.93;;;;;;;;;;4975521;28;20443;-53
2022/08/23 11:22:13;;;;;;;3.57;2.50;;;;;;;;;;5024750;28;20446;-54
2022/08/23 11:24:48;;;;;;;4.00;2.90;;;;;;;;;;5023508;28;20446;-54
2022/08/23 11:27:24;;;;;;;3.73;3.27;;;;;;;;;;5017176;28;20852;-54
2022/08/23 11:29:50;;;;;;;3.07;2.63;;;;;;;;;;5007969;28;21081;-54
2022/08/23 11:32:22;;;;;;;4.07;2.80;;;;;;;;;;5009178;28;20437;-53
2022/08/23 11:34:49;;;;;;;2.60;2.40;;;;;;;;;;5017549;28;20436;-54
2022/08/23 11:37:18;;;;;;;2.83;1.90;;;;;;;;;;5009049;28;20435;-54
2022/08/23 11:40:00;;;;;;;2.87;2.67;;;;;;;;;;5012001;28;21061;-54
2022/08/23 11:42:30;;;;;;;3.10;2.40;;;;;;;;;;5027093;28;20497;-55
2022/08/23 11:44:56;;;;;;;2.60;2.30;;;;;;;;;;4978550;28;20942;-55
2022/08/23 11:47:29;;;;;;;4.17;2.83;;;;;;;;;;5000288;28;20489;-54
2022/08/23 11:50:15;;;;;;;4.27;2.77;;;;;;;;;;5010791;28;20838;-55
2022/08/23 11:52:51;;;;;;;4.07;2.90;;;;;;;;;;5007726;28;20431;-55
2022/08/23 11:55:21;;;;;;;2.77;2.20;;;;;;;;;;5012174;28;20833;-55
2022/08/23 11:57:54;;;;;;;3.30;2.40;;;;;;;;;;5017565;28;20937;-55
2022/08/23 12:00:20;;;;;;;3.20;2.40;;;;;;;;;;5021809;28;20525;-55
2022/08/23 12:03:02;;;;;;;3.80;2.60;;;;;;;;;;5020323;28;20462;-55
2022/08/23 12:05:38;;;;;;;3.07;2.37;;;;;;;;;;5006030;28;20535;-55
2022/08/23 12:08:07;;;;;;;3.70;2.70;;;;;;;;;;5025822;28;20532;-55
2022/08/23 12:10:42;;;;;;;3.30;2.77;;;;;;;;;;5011346;28;20439;-55
2022/08/23 12:13:20;;;;;;;3.37;2.97;;;;;;;;;;5023217;28;20427;-55
2022/08/23 12:16:05;;;;;;;3.23;2.70;;;;;;;;;;4981966;28;20443;-55
2022/08/23 12:18:31;;;;;;;2.90;2.43;;;;;;;;;;5019088;28;20786;-55
2022/08/23 12:20:58;;;;;;;3.23;2.93;;;;;;;;;;5023372;28;20423;-55
2022/08/23 12:23:23;;;;;;;3.03;2.73;;;;;;;;;;5005758;28;20490;-55
2022/08/23 12:25:59;;;;;;;3.70;2.90;;;;;;;;;;5023719;28;20809;-54
2022/08/23 12:28:28;;;;;;;8.03;3.10;;;;;;;;;;5023488;28;20222;-55
2022/08/23 12:31:17;;;;;;;3.50;2.40;;;;;;;;;;5016942;28;20427;-55
2022/08/23 12:33:48;;;;;;;3.60;3.03;;;;;;;;;;4980981;28;20446;-55
2022/08/23 12:36:17;;;;;;;4.50;3.03;;;;;;;;;;5006461;28;20435;-54
2022/08/23 12:38:52;;;;;;;3.27;2.80;;;;;;;;;;5010295;28;20462;-55
2022/08/23 12:41:26;;;;;;;3.00;2.67;;;;;;;;;;5020163;28;20533;-55
2022/08/23 12:44:02;;;;;;;3.00;2.70;;;;;;;;;;5025466;28;20442;-55
2022/08/23 12:46:29;;;;;;;3.33;2.80;;;;;;;;;;5015079;28;20458;-54
2022/08/23 12:48:55;;;;;;;3.80;3.27;;;;;;;;;;4973426;28;20483;-55
2022/08/23 12:51:21;;;;;;;3.03;2.73;;;;;;;;;;5018678;28;20553;-55
2022/08/23 12:53:47;;;;;;;3.73;2.80;;;;;;;;;;5020961;28;20534;-55
2022/08/23 12:56:17;;;;;;;3.87;3.17;;;;;;;;;;5029015;28;20918;-55
2022/08/23 12:58:48;;;;;;;3.27;2.57;;;;;;;;;;5023540;28;20788;-55
2022/08/23 13:01:21;;;;;;;4.10;2.60;;;;;;;;;;5002591;28;20454;-55
2022/08/23 13:03:48;;;;;;;3.13;2.83;;;;;;;;;;5008065;28;20428;-55
2022/08/23 13:06:15;;;;;;;4.07;2.30;;;;;;;;;;5025416;28;20446;-55
2022/08/23 13:08:42;;;;;;;3.00;2.70;;;;;;;;;;5012962;28;20474;-55
2022/08/23 13:11:09;;;;;;;4.40;2.50;;;;;;;;;;5001692;28;20774;-54
2022/08/23 13:13:36;;;;;;;4.87;2.43;;;;;;;;;;5003165;28;20447;-55
2022/08/23 13:16:03;;;;;;;2.90;2.60;;;;;;;;;;5019792;28;20522;-56
2022/08/23 13:18:33;;;;;;;5.13;2.50;;;;;;;;;;5027231;28;20438;-55
2022/08/23 13:21:17;;;;;;;3.37;3.07;;;;;;;;;;4964660;28;20462;-55
2022/08/23 13:23:43;;;;;;;3.23;2.93;;;;;;;;;;5028577;28;20789;-55
2022/08/23 13:26:25;;;;;;;6.50;3.07;;;;;;;;;;5002130;28;20522;-56
2022/08/23 13:29:20;;;;;;;5.17;2.70;;;;;;;;;;5030599;28;20532;-54
2022/08/23 13:31:54;;;;;;;5.67;2.83;;;;;;;;;;4982078;28;20432;-54
2022/08/23 13:34:42;;;;;;;5.73;2.83;;;;;;;;;;5022457;28;20449;-54
2022/08/23 13:37:19;;;;;;;3.77;2.43;;;;;;;;;;5019790;28;20501;-54
2022/08/23 13:39:46;;;;;;;3.13;2.83;;;;;;;;;;5000634;28;20471;-54
2022/08/23 13:42:12;;;;;;;3.50;2.70;;;;;;;;;;5024474;28;20431;-54
2022/08/23 13:44:39;;;;;;;4.70;2.40;;;;;;;;;;5017838;28;20436;-55
2022/08/23 13:47:05;;;;;;;3.77;2.80;;;;;;;;;;5025997;28;20207;-54
2022/08/23 13:49:31;;;;;;;3.63;2.57;;;;;;;;;;5004163;28;20423;-54
2022/08/23 13:52:00;;;;;;;3.37;3.00;;;;;;;;;;5016967;28;20180;-54
2022/08/23 13:54:26;;;;;;;3.93;2.97;;;;;;;;;;5012678;28;20184;-55
2022/08/23 13:56:59;;;;;;;3.20;2.63;;;;;;;;;;5002258;28;20508;-54
2022/08/23 13:59:26;;;;;;;4.23;3.13;;;;;;;;;;5005494;28;20435;-54
2022/08/23 14:01:52;;;;;;;3.83;2.93;;;;;;;;;;5008656;28;20439;-54
2022/08/23 14:04:18;;;;;;;4.70;3.43;;;;;;;;;;5023221;28;20479;-54
2022/08/23 14:06:45;;;;;;;5.37;3.60;;;;;;;;;;5019752;28;20438;-54
2022/08/23 14:09:11;;;;;;;8.33;3.27;;;;;;;;;;5020525;28;20212;-54
2022/08/23 14:11:36;;;;;;;3.60;2.73;;;;;;;;;;4994872;28;20501;-53
2022/08/23 14:14:02;;;;;;;3.63;2.70;;;;;;;;;;5015985;28;20203;-54
2022/08/23 14:16:29;;;;;;;5.10;2.60;;;;;;;;;;5018421;28;20202;-54
2022/08/23 14:18:55;;;;;;;3.13;2.40;;;;;;;;;;5022726;28;20533;-54
2022/08/23 14:21:21;;;;;;;3.33;2.27;;;;;;;;;;5012095;28;21033;-54
2022/08/23 14:23:47;;;;;;;4.10;2.80;;;;;;;;;;5023948;28;20493;-54
2022/08/23 14:26:14;;;;;;;3.53;2.63;;;;;;;;;;5016672;28;20173;-53
2022/08/23 14:28:40;;;;;;;3.30;3.00;;;;;;;;;;5030594;28;20567;-54
2022/08/23 14:31:06;;;;;;;3.30;3.00;;;;;;;;;;4984267;28;20443;-54
2022/08/23 14:33:32;;;;;;;2.73;2.53;;;;;;;;;;5025593;28;20180;-54
2022/08/23 14:35:58;;;;;;;3.43;3.13;;;;;;;;;;5025317;28;20183;-54
2022/08/23 14:38:24;;;;;;;6.77;3.13;;;;;;;;;;5026212;28;20446;-54
2022/08/23 14:40:52;;;;;;;3.40;2.70;;;;;;;;;;5015984;28;20187;-57
2022/08/23 14:43:19;;;;;;;5.03;3.07;;;;;;;;;;5004170;28;20447;-55
2022/08/23 14:45:45;;;;;;;6.13;3.50;;;;;;;;;;5023399;28;20470;-53
2022/08/23 14:48:11;;;;;;;6.90;3.40;;;;;;;;;;4977667;28;21313;-55
2022/08/23 14:50:37;;;;;;;3.23;2.63;;;;;;;;;;5004957;28;20191;-54
2022/08/23 14:53:03;;;;;;;3.20;2.90;;;;;;;;;;5012674;28;20267;-54
2022/08/23 14:55:29;;;;;;;4.43;3.50;;;;;;;;;;5020513;28;20534;-54
2022/08/23 14:57:55;;;;;;;5.80;3.00;;;;;;;;;;5021209;28;20440;-54
2022/08/23 15:00:21;;;;;;;3.73;3.33;;;;;;;;;;4995327;28;21408;-54